createdAt,value
2018-03-25T00:02:05.469Z,98.20
2018-03-25T00:04:37.000Z,98.40
2018-03-25T00:07:05.866Z,98.40
2018-03-25T00:09:34.146Z,98.70
2018-03-25T00:12:03.885Z,99.00
2018-03-25T00:14:34.701Z,98.90
2018-03-25T00:17:03.864Z,98.70
2018-03-25T00:19:32.140Z,98.50
2018-03-25T00:22:01.841Z,98.50
2018-03-25T00:24:33.733Z,98.50
2018-03-25T00:27:02.244Z,98.50
2018-03-25T00:29:30.515Z,98.70
2018-03-25T00:31:58.791Z,98.70
2018-03-25T00:34:27.071Z,98.70
2018-03-25T00:36:55.367Z,98.50
2018-03-25T00:39:26.014Z,98.60
2018-03-25T00:41:55.295Z,98.50
2018-03-25T00:44:25.027Z,98.50
2018-03-25T00:46:56.318Z,98.40
2018-03-25T00:49:24.607Z,98.50
2018-03-25T00:51:54.349Z,98.80
2018-03-25T00:54:23.499Z,98.80
2018-03-25T00:56:52.745Z,98.80
2018-03-25T00:59:21.045Z,98.80
2018-03-25T01:01:49.316Z,98.90
2018-03-25T01:04:17.581Z,98.90
2018-03-25T01:06:45.905Z,98.80
2018-03-25T01:09:14.241Z,98.80
2018-03-25T01:11:42.505Z,98.70
2018-03-25T01:14:10.790Z,98.80
2018-03-25T01:16:39.051Z,98.90
2018-03-25T01:19:07.381Z,99.00
2018-03-25T01:21:35.690Z,99.10
2018-03-25T01:24:04.749Z,99.30
2018-03-25T01:26:33.035Z,99.30
2018-03-25T01:29:01.307Z,99.40
2018-03-25T01:31:29.606Z,99.40
2018-03-25T01:33:57.870Z,99.40
2018-03-25T01:36:26.233Z,99.30
2018-03-25T01:38:54.497Z,99.20
2018-03-25T01:41:22.796Z,99.20
2018-03-25T01:43:51.051Z,99.20
2018-03-25T01:46:19.370Z,99.10
2018-03-25T01:48:48.453Z,99.10
2018-03-25T01:51:16.726Z,99.30
2018-03-25T01:53:45.006Z,99.10
2018-03-25T01:56:13.297Z,99.20
2018-03-25T01:58:41.549Z,99.60
2018-03-25T02:01:09.819Z,99.00
2018-03-25T02:03:38.101Z,99.30
2018-03-25T02:06:06.381Z,99.20
2018-03-25T02:08:34.655Z,99.20
2018-03-25T02:11:02.961Z,99.20
2018-03-25T02:13:31.993Z,99.70
2018-03-25T02:16:00.271Z,99.40
2018-03-25T02:18:28.555Z,99.40
2018-03-25T02:20:56.814Z,99.30
2018-03-25T02:23:26.009Z,99.20
2018-03-25T02:25:54.284Z,99.30
2018-03-25T02:28:22.562Z,99.30
2018-03-25T02:30:50.855Z,99.30
2018-03-25T02:33:19.196Z,99.30
2018-03-25T02:35:47.442Z,99.50
2018-03-25T02:38:15.748Z,99.50
2018-03-25T02:40:44.798Z,99.60
2018-03-25T02:43:13.092Z,99.60
2018-03-25T02:45:42.190Z,99.90
2018-03-25T02:48:11.990Z,99.90
2018-03-25T02:50:40.310Z,99.90
2018-03-25T02:53:09.334Z,99.90
2018-03-25T02:55:37.608Z,99.90
2018-03-25T02:58:05.881Z,99.90
2018-03-25T03:00:34.175Z,99.90
2018-03-25T03:03:02.452Z,99.90
2018-03-25T03:05:30.722Z,99.90
2018-03-25T03:07:59.113Z,99.90
2018-03-25T03:10:27.386Z,99.90
2018-03-25T03:12:55.588Z,99.90
2018-03-25T03:15:24.583Z,99.90
2018-03-25T03:17:52.775Z,99.90
2018-03-25T03:20:21.128Z,99.90
2018-03-25T03:22:49.437Z,99.90
2018-03-25T03:25:17.727Z,99.90
2018-03-25T03:27:45.994Z,99.90
2018-03-25T03:30:14.271Z,99.90
2018-03-25T03:32:42.549Z,99.90
2018-03-25T03:35:10.821Z,99.90
2018-03-25T03:37:39.102Z,99.90
2018-03-25T03:40:07.430Z,99.90
2018-03-25T03:42:35.740Z,99.90
2018-03-25T03:45:04.812Z,99.90
2018-03-25T03:47:33.882Z,99.90
2018-03-25T03:50:02.190Z,99.90
2018-03-25T03:52:31.705Z,99.90
2018-03-25T03:55:01.830Z,99.90
2018-03-25T03:57:30.881Z,99.90
2018-03-25T04:00:00.247Z,99.90
2018-03-25T04:02:28.540Z,99.90
2018-03-25T04:04:59.711Z,99.90
2018-03-25T04:07:28.007Z,99.90
2018-03-25T04:09:56.281Z,99.90
2018-03-25T04:12:24.566Z,99.90
2018-03-25T04:14:55.586Z,99.90
2018-03-25T04:17:23.868Z,99.90
2018-03-25T04:19:52.153Z,99.90
2018-03-25T04:22:21.205Z,99.90
2018-03-25T04:24:49.478Z,99.90
2018-03-25T04:27:17.751Z,99.90
2018-03-25T04:29:46.025Z,99.90
2018-03-25T04:32:14.308Z,99.90
2018-03-25T04:34:42.591Z,99.90
2018-03-25T04:37:10.916Z,99.90
2018-03-25T04:39:39.974Z,99.90
2018-03-25T04:42:08.254Z,99.90
2018-03-25T04:44:36.528Z,99.90
2018-03-25T04:47:04.807Z,99.90
2018-03-25T04:49:33.101Z,99.90
2018-03-25T04:52:01.373Z,99.90
2018-03-25T04:54:29.663Z,99.90
2018-03-25T04:56:58.731Z,99.90
2018-03-25T04:59:27.020Z,99.90
2018-03-25T05:01:55.340Z,99.90
2018-03-25T05:04:23.635Z,99.90
2018-03-25T05:06:52.533Z,99.90
2018-03-25T05:09:21.746Z,99.90
2018-03-25T05:11:50.033Z,99.90
2018-03-25T05:14:18.312Z,99.90
2018-03-25T05:16:46.641Z,99.90
2018-03-25T05:19:14.936Z,99.90
2018-03-25T05:21:43.227Z,99.90
2018-03-25T05:24:11.531Z,99.90
2018-03-25T05:26:42.041Z,99.90
2018-03-25T05:29:11.275Z,99.90
2018-03-25T05:31:40.319Z,99.90
2018-03-25T05:34:08.638Z,99.90
2018-03-25T05:36:36.898Z,99.90
2018-03-25T05:39:05.269Z,99.90
2018-03-25T05:41:33.564Z,99.90
2018-03-25T05:44:01.837Z,99.90
2018-03-25T05:46:30.904Z,99.90
2018-03-25T05:48:59.187Z,99.90
2018-03-25T05:51:27.472Z,99.90
2018-03-25T05:53:55.812Z,99.90
2018-03-25T05:56:24.965Z,99.90
2018-03-25T05:58:54.037Z,99.90
2018-03-25T06:01:22.331Z,99.90
2018-03-25T06:03:51.500Z,99.90
2018-03-25T06:06:19.823Z,99.90
2018-03-25T06:08:54.028Z,99.80
2018-03-25T06:11:23.451Z,99.80
2018-03-25T06:13:53.474Z,99.80
2018-03-25T06:16:25.261Z,99.70
2018-03-25T06:18:55.921Z,99.40
2018-03-25T06:21:28.580Z,99.40
2018-03-25T06:23:57.130Z,99.40
2018-03-25T06:26:27.351Z,99.20
2018-03-25T06:28:57.188Z,99.20
2018-03-25T06:31:25.461Z,99.00
2018-03-25T06:33:55.044Z,98.90
2018-03-25T06:36:24.083Z,98.90
2018-03-25T06:38:52.367Z,98.90
2018-03-25T06:41:20.668Z,98.70
2018-03-25T06:43:49.705Z,98.20
2018-03-25T06:46:17.972Z,98.10
2018-03-25T06:48:46.348Z,98.20
2018-03-25T06:51:14.616Z,97.80
2018-03-25T06:53:43.743Z,97.90
2018-03-25T06:56:12.024Z,97.90
2018-03-25T06:58:40.296Z,97.20
2018-03-25T07:01:08.590Z,98.00
2018-03-25T07:03:36.869Z,98.00
2018-03-25T07:06:05.924Z,97.10
2018-03-25T07:08:34.252Z,97.10
2018-03-25T07:11:02.497Z,97.10
2018-03-25T07:13:30.771Z,96.70
2018-03-25T07:15:59.051Z,96.60
2018-03-25T07:18:27.314Z,95.70
2018-03-25T07:20:55.640Z,95.60
2018-03-25T07:23:24.702Z,96.00
2018-03-25T07:25:53.013Z,96.00
2018-03-25T07:28:21.301Z,95.70
2018-03-25T07:30:51.310Z,95.90
2018-03-25T07:33:22.930Z,95.50
2018-03-25T07:35:51.754Z,95.70
2018-03-25T07:38:25.284Z,95.70
2018-03-25T07:40:55.215Z,95.70
2018-03-25T07:43:25.143Z,95.60
2018-03-25T07:45:54.163Z,95.40
2018-03-25T07:48:23.175Z,95.40
2018-03-25T07:50:53.378Z,95.20
2018-03-25T07:53:25.420Z,94.60
2018-03-25T07:55:54.375Z,94.60
2018-03-25T07:58:23.626Z,94.40
2018-03-25T08:00:54.217Z,92.80
2018-03-25T08:03:22.493Z,92.80
2018-03-25T08:05:50.836Z,93.30
2018-03-25T08:08:19.172Z,92.50
2018-03-25T08:10:47.446Z,92.30
2018-03-25T08:13:16.537Z,92.60
2018-03-25T08:15:46.752Z,92.40
2018-03-25T08:18:16.218Z,92.20
2018-03-25T08:20:46.242Z,91.40
2018-03-25T08:23:17.972Z,91.70
2018-03-25T08:25:47.486Z,91.70
2018-03-25T08:28:17.346Z,91.40
2018-03-25T08:30:46.463Z,91.30
2018-03-25T08:33:15.746Z,91.30
2018-03-25T08:35:44.778Z,91.60
2018-03-25T08:38:13.048Z,91.20
2018-03-25T08:40:41.348Z,91.00
2018-03-25T08:43:12.747Z,90.70
2018-03-25T08:45:41.014Z,90.70
2018-03-25T08:48:11.360Z,90.10
2018-03-25T08:50:45.824Z,89.90
2018-03-25T08:53:15.025Z,87.50
2018-03-25T08:55:45.024Z,87.30
2018-03-25T08:58:13.959Z,87.50
2018-03-25T09:00:42.873Z,87.30
2018-03-25T09:03:11.250Z,86.70
2018-03-25T09:05:39.512Z,85.10
2018-03-25T09:08:07.801Z,82.60
2018-03-25T09:10:37.088Z,80.20
2018-03-25T09:13:05.381Z,80.10
2018-03-25T09:15:33.694Z,79.90
2018-03-25T09:18:02.728Z,77.20
2018-03-25T09:20:31.034Z,77.20
2018-03-25T09:23:00.431Z,75.10
2018-03-25T09:25:29.606Z,74.60
2018-03-25T09:27:57.890Z,72.60
2018-03-25T09:30:26.213Z,71.60
2018-03-25T09:32:54.574Z,70.00
2018-03-25T09:35:23.640Z,70.90
2018-03-25T09:37:51.958Z,69.10
2018-03-25T09:40:20.229Z,70.20
2018-03-25T09:42:49.405Z,71.50
2018-03-25T09:45:18.261Z,69.70
2018-03-25T09:47:46.706Z,67.50
2018-03-25T09:50:15.007Z,65.20
2018-03-25T09:52:43.308Z,63.50
2018-03-25T09:55:12.832Z,59.90
2018-03-25T09:57:41.105Z,59.90
2018-03-25T10:00:09.403Z,57.20
2018-03-25T10:02:42.957Z,59.40
2018-03-25T10:05:11.223Z,57.80
2018-03-25T10:07:39.519Z,63.10
2018-03-25T10:10:07.807Z,57.20
2018-03-25T10:12:36.212Z,56.80
2018-03-25T10:15:05.251Z,58.00
2018-03-25T10:17:33.525Z,58.00
2018-03-25T10:20:01.824Z,58.10
2018-03-25T10:22:30.100Z,56.70
2018-03-25T10:24:58.402Z,51.80
2018-03-25T10:27:26.679Z,53.10
2018-03-25T10:29:55.766Z,53.20
2018-03-25T10:32:24.602Z,51.40
2018-03-25T10:34:52.936Z,52.90
2018-03-25T10:37:21.206Z,54.60
2018-03-25T10:39:49.497Z,54.20
2018-03-25T10:42:17.856Z,52.90
2018-03-25T10:44:47.770Z,51.90
2018-03-25T10:47:17.799Z,49.80
2018-03-25T10:49:46.898Z,50.10
2018-03-25T10:52:16.043Z,49.80
2018-03-25T10:54:44.346Z,46.30
2018-03-25T10:57:15.479Z,46.00
2018-03-25T10:59:44.701Z,46.40
2018-03-25T11:02:13.624Z,46.40
2018-03-25T11:04:41.943Z,46.20
2018-03-25T11:07:11.039Z,47.10
2018-03-25T11:09:39.314Z,46.70
2018-03-25T11:12:11.052Z,46.90
2018-03-25T11:14:39.335Z,44.90
2018-03-25T11:17:08.436Z,44.00
2018-03-25T11:19:36.751Z,46.30
2018-03-25T11:22:05.663Z,50.50
2018-03-25T11:24:35.504Z,49.90
2018-03-25T11:27:04.573Z,51.00
2018-03-25T11:29:32.854Z,49.80
2018-03-25T11:32:02.920Z,46.30
2018-03-25T11:34:31.196Z,46.20
2018-03-25T11:37:01.209Z,44.60
2018-03-25T11:39:30.067Z,42.80
2018-03-25T11:41:59.100Z,44.70
2018-03-25T11:44:27.393Z,44.40
2018-03-25T11:46:55.662Z,42.30
2018-03-25T11:49:23.967Z,45.80
2018-03-25T11:51:52.260Z,48.40
2018-03-25T11:54:21.285Z,44.20
2018-03-25T11:56:49.569Z,44.20
2018-03-25T11:59:18.553Z,43.90
2018-03-25T12:01:46.876Z,42.50
2018-03-25T12:04:16.758Z,41.90
2018-03-25T12:06:46.817Z,43.40
2018-03-25T12:09:18.369Z,41.40
2018-03-25T12:11:47.686Z,41.70
2018-03-25T12:14:17.448Z,41.30
2018-03-25T12:16:45.747Z,41.20
2018-03-25T12:19:14.696Z,39.60
2018-03-25T12:21:44.842Z,37.70
2018-03-25T12:24:13.895Z,38.50
2018-03-25T12:26:42.912Z,38.40
2018-03-25T12:29:11.172Z,39.90
2018-03-25T12:31:39.444Z,37.90
2018-03-25T12:34:07.743Z,39.10
2018-03-25T12:36:36.019Z,37.90
2018-03-25T12:39:04.319Z,36.90
2018-03-25T12:41:32.580Z,39.00
2018-03-25T12:44:00.902Z,42.50
2018-03-25T12:46:30.342Z,37.50
2018-03-25T12:48:58.643Z,37.40
2018-03-25T12:51:26.917Z,36.70
2018-03-25T12:53:55.239Z,39.10
2018-03-25T12:56:24.269Z,39.80
2018-03-25T12:58:52.529Z,39.20
2018-03-25T13:01:20.803Z,39.70
2018-03-25T13:03:50.026Z,41.20
2018-03-25T13:06:19.278Z,41.90
2018-03-25T13:08:48.441Z,38.50
2018-03-25T13:11:17.466Z,38.50
2018-03-25T13:13:48.305Z,36.60
2018-03-25T13:16:17.354Z,35.20
2018-03-25T13:18:46.332Z,34.40
2018-03-25T13:21:16.984Z,36.20
2018-03-25T13:23:45.248Z,36.60
2018-03-25T13:26:14.278Z,37.70
2018-03-25T13:28:43.337Z,38.20
2018-03-25T13:31:11.601Z,37.20
2018-03-25T13:33:39.882Z,35.20
2018-03-25T13:36:08.288Z,35.70
2018-03-25T13:38:36.541Z,35.10
2018-03-25T13:41:07.363Z,35.70
2018-03-25T13:43:36.097Z,33.50
2018-03-25T13:46:04.388Z,35.60
2018-03-25T13:48:34.641Z,35.70
2018-03-25T13:51:02.916Z,34.90
2018-03-25T13:53:31.214Z,36.90
2018-03-25T13:55:59.496Z,37.50
2018-03-25T13:58:27.776Z,38.60
2018-03-25T14:00:56.120Z,39.80
2018-03-25T14:03:24.365Z,40.10
2018-03-25T14:05:53.636Z,37.90
2018-03-25T14:08:21.939Z,37.80
2018-03-25T14:10:51.252Z,36.30
2018-03-25T14:13:19.610Z,35.60
2018-03-25T14:15:47.885Z,35.30
2018-03-25T14:18:16.146Z,37.60
2018-03-25T14:20:44.409Z,36.90
2018-03-25T14:23:13.355Z,39.30
2018-03-25T14:25:43.326Z,40.20
2018-03-25T14:28:12.787Z,40.10
2018-03-25T14:30:42.486Z,40.90
2018-03-25T14:33:12.111Z,40.60
2018-03-25T14:35:40.415Z,40.50
2018-03-25T14:38:08.803Z,40.80
2018-03-25T14:40:37.987Z,43.00
2018-03-25T14:43:06.259Z,42.20
2018-03-25T14:45:35.190Z,41.10
2018-03-25T14:48:05.018Z,42.40
2018-03-25T14:50:34.068Z,45.30
2018-03-25T14:53:02.453Z,44.70
2018-03-25T14:55:30.717Z,45.10
2018-03-25T14:57:59.006Z,43.10
2018-03-25T15:00:27.328Z,44.90
2018-03-25T15:02:57.025Z,45.10
2018-03-25T15:05:25.319Z,45.10
2018-03-25T15:07:54.385Z,43.50
2018-03-25T15:10:22.654Z,43.40
2018-03-25T15:12:51.017Z,39.40
2018-03-25T15:15:19.312Z,41.10
2018-03-25T15:17:47.590Z,42.10
2018-03-25T15:20:15.871Z,43.30
2018-03-25T15:22:45.028Z,44.60
2018-03-25T15:25:13.326Z,45.70
2018-03-25T15:27:42.410Z,44.10
2018-03-25T15:30:11.213Z,43.10
2018-03-25T15:32:40.518Z,42.70
2018-03-25T15:35:09.986Z,42.00
2018-03-25T15:37:42.119Z,41.30
2018-03-25T15:40:13.642Z,40.50
2018-03-25T15:42:41.943Z,40.50
2018-03-25T15:45:11.012Z,42.90
2018-03-25T15:47:39.298Z,42.80
2018-03-25T15:50:07.582Z,44.00
2018-03-25T15:52:36.651Z,46.30
2018-03-25T15:55:04.920Z,46.30
2018-03-25T15:57:33.191Z,46.50
2018-03-25T16:00:01.718Z,46.60
2018-03-25T16:02:30.804Z,48.50
2018-03-25T16:04:59.075Z,48.50
2018-03-25T16:07:27.346Z,48.80
2018-03-25T16:09:55.621Z,48.30
2018-03-25T16:12:23.909Z,48.50
2018-03-25T16:14:52.187Z,48.60
2018-03-25T16:17:20.455Z,48.80
2018-03-25T16:19:48.731Z,48.90
2018-03-25T16:22:16.996Z,49.10
2018-03-25T16:24:46.237Z,49.80
2018-03-25T16:27:15.412Z,50.10
2018-03-25T16:29:43.726Z,50.80
2018-03-25T16:32:12.834Z,50.50
2018-03-25T16:34:41.774Z,50.40
2018-03-25T16:37:10.999Z,50.50
2018-03-25T16:39:39.325Z,51.20
2018-03-25T16:42:07.576Z,51.50
2018-03-25T16:44:36.840Z,51.80
2018-03-25T16:47:05.881Z,52.40
2018-03-25T16:49:34.660Z,52.40
2018-03-25T16:52:03.783Z,53.00
2018-03-25T16:54:32.066Z,52.50
2018-03-25T16:57:00.350Z,52.70
2018-03-25T16:59:29.584Z,52.40
2018-03-25T17:01:57.858Z,53.10
2018-03-25T17:04:26.909Z,54.70
2018-03-25T17:06:55.276Z,54.60
2018-03-25T17:09:23.551Z,55.80
2018-03-25T17:11:51.830Z,56.60
2018-03-25T17:14:20.130Z,57.20
2018-03-25T17:16:49.408Z,57.40
2018-03-25T17:19:18.341Z,56.80
2018-03-25T17:21:48.068Z,56.40
2018-03-25T17:24:16.925Z,56.30
2018-03-25T17:26:46.214Z,57.30
2018-03-25T17:29:21.476Z,57.60
2018-03-25T17:31:50.518Z,58.30
2018-03-25T17:34:18.795Z,58.20
2018-03-25T17:36:47.076Z,59.20
2018-03-25T17:39:15.377Z,60.40
2018-03-25T17:41:44.859Z,61.80
2018-03-25T17:44:14.392Z,62.60
2018-03-25T17:46:43.312Z,63.40
2018-03-25T17:49:13.412Z,64.20
2018-03-25T17:51:41.702Z,64.10
2018-03-25T17:54:10.764Z,64.90
2018-03-25T17:56:39.056Z,64.80
2018-03-25T17:59:08.226Z,65.10
2018-03-25T18:01:36.505Z,65.00
2018-03-25T18:04:04.941Z,65.70
2018-03-25T18:06:33.228Z,65.70
2018-03-25T18:09:01.514Z,65.00
2018-03-25T18:11:31.640Z,65.40
2018-03-25T18:13:59.939Z,65.80
2018-03-25T18:16:28.244Z,65.40
2018-03-25T18:18:56.549Z,65.60
2018-03-25T18:21:24.834Z,65.60
2018-03-25T18:23:53.106Z,66.10
2018-03-25T18:26:21.397Z,66.20
2018-03-25T18:28:49.790Z,66.50
2018-03-25T18:31:18.084Z,66.70
2018-03-25T18:33:46.367Z,66.90
2018-03-25T18:36:14.642Z,67.30
2018-03-25T18:38:42.928Z,67.60
2018-03-25T18:41:11.189Z,67.60
2018-03-25T18:43:39.483Z,68.00
2018-03-25T18:46:07.744Z,67.70
2018-03-25T18:48:37.274Z,68.00
2018-03-25T18:51:05.529Z,68.20
2018-03-25T18:53:33.888Z,68.40
2018-03-25T18:56:02.198Z,68.80
2018-03-25T18:58:31.263Z,68.70
2018-03-25T19:00:59.551Z,68.10
2018-03-25T19:03:27.855Z,69.00
2018-03-25T19:05:57.517Z,68.40
2018-03-25T19:08:25.794Z,68.30
2018-03-25T19:10:54.078Z,68.60
2018-03-25T19:13:23.955Z,69.60
2018-03-25T19:15:53.085Z,69.90
2018-03-25T19:18:21.363Z,70.10
2018-03-25T19:20:49.659Z,70.60
2018-03-25T19:23:19.928Z,70.30
2018-03-25T19:25:49.190Z,70.30
2018-03-25T19:28:19.194Z,71.20
2018-03-25T19:30:47.464Z,71.20
2018-03-25T19:33:15.747Z,71.70
2018-03-25T19:35:44.022Z,71.60
2018-03-25T19:38:12.294Z,71.60
2018-03-25T19:40:41.502Z,72.40
2018-03-25T19:43:10.698Z,73.00
2018-03-25T19:45:39.752Z,73.30
2018-03-25T19:48:08.830Z,72.80
2018-03-25T19:50:37.243Z,73.70
2018-03-25T19:53:05.596Z,74.00
2018-03-25T19:55:33.865Z,74.20
2018-03-25T19:58:02.170Z,74.40
2018-03-25T20:00:31.065Z,74.20
2018-03-25T20:02:59.352Z,74.40
2018-03-25T20:05:28.480Z,75.00
2018-03-25T20:08:00.643Z,75.70
2018-03-25T20:10:28.952Z,75.60
2018-03-25T20:12:58.216Z,75.70
2018-03-25T20:15:26.528Z,75.50
2018-03-25T20:17:54.817Z,76.60
2018-03-25T20:20:23.079Z,76.30
2018-03-25T20:22:51.289Z,77.00
2018-03-25T20:25:19.584Z,76.90
2018-03-25T20:27:47.872Z,77.00
2018-03-25T20:30:16.899Z,77.30
2018-03-25T20:32:45.160Z,77.20
2018-03-25T20:35:13.424Z,77.70
2018-03-25T20:37:42.455Z,78.90
2018-03-25T20:40:10.715Z,78.00
2018-03-25T20:42:38.985Z,78.00
2018-03-25T20:45:07.257Z,78.30
2018-03-25T20:47:35.529Z,78.40
2018-03-25T20:50:04.561Z,78.90
2018-03-25T20:52:32.838Z,78.80
2018-03-25T20:55:01.169Z,78.60
2018-03-25T20:57:31.745Z,79.50
2018-03-25T21:00:00.888Z,79.40
2018-03-25T21:02:29.200Z,80.10
2018-03-25T21:04:58.639Z,80.60
2018-03-25T21:07:26.926Z,81.40
2018-03-25T21:09:55.216Z,80.90
2018-03-25T21:12:23.474Z,81.30
2018-03-25T21:14:52.436Z,81.40
2018-03-25T21:17:23.835Z,81.60
2018-03-25T21:19:54.031Z,82.00
2018-03-25T21:22:22.585Z,82.00
2018-03-25T21:24:51.590Z,82.60
2018-03-25T21:27:20.939Z,82.40
2018-03-25T21:29:50.894Z,83.20
2018-03-25T21:32:20.402Z,83.10
2018-03-25T21:34:48.677Z,82.90
2018-03-25T21:37:16.966Z,83.80
2018-03-25T21:39:45.262Z,84.20
2018-03-25T21:42:15.249Z,84.40
2018-03-25T21:44:44.456Z,84.40
2018-03-25T21:47:12.744Z,84.50
2018-03-25T21:49:41.724Z,84.90
2018-03-25T21:52:10.017Z,85.30
2018-03-25T21:54:38.850Z,85.50
2018-03-25T21:57:07.895Z,85.80
2018-03-25T21:59:36.172Z,85.70
2018-03-25T22:02:04.433Z,85.60
2018-03-25T22:04:32.726Z,86.30
2018-03-25T22:07:00.994Z,86.00
2018-03-25T22:09:29.272Z,85.40
2018-03-25T22:11:57.570Z,85.90
2018-03-25T22:14:25.843Z,86.40
2018-03-25T22:16:55.756Z,86.20
2018-03-25T22:19:24.047Z,86.40
2018-03-25T22:21:53.204Z,86.40
2018-03-25T22:24:22.290Z,86.30
2018-03-25T22:26:51.512Z,86.80
2018-03-25T22:29:20.687Z,87.00
2018-03-25T22:31:50.540Z,87.00
2018-03-25T22:34:21.185Z,87.20
2018-03-25T22:36:50.466Z,88.00
2018-03-25T22:39:19.561Z,87.70
2018-03-25T22:41:48.430Z,87.80
2018-03-25T22:44:16.794Z,87.90
2018-03-25T22:46:46.752Z,88.00
2018-03-25T22:49:15.015Z,88.50
2018-03-25T22:51:43.285Z,88.60
2018-03-25T22:54:11.542Z,88.80
2018-03-25T22:56:39.816Z,89.40
2018-03-25T22:59:08.083Z,89.10
2018-03-25T23:01:37.228Z,89.40
2018-03-25T23:04:05.550Z,89.50
2018-03-25T23:06:33.833Z,89.60
2018-03-25T23:09:02.115Z,89.60
2018-03-25T23:11:31.149Z,90.00
2018-03-25T23:14:00.001Z,90.00
2018-03-25T23:16:29.077Z,90.10
2018-03-25T23:18:58.330Z,90.20
2018-03-25T23:21:26.621Z,90.40
2018-03-25T23:23:55.509Z,90.30
2018-03-25T23:26:23.819Z,90.30
2018-03-25T23:28:52.835Z,90.60
2018-03-25T23:31:21.196Z,90.50
2018-03-25T23:33:50.140Z,90.80
2018-03-25T23:36:18.398Z,91.00
2018-03-25T23:38:46.670Z,91.50
2018-03-25T23:41:14.948Z,91.30
2018-03-25T23:43:43.554Z,91.40
2018-03-25T23:46:11.822Z,91.50
2018-03-25T23:48:40.078Z,91.70
2018-03-25T23:51:08.383Z,91.80
2018-03-25T23:53:36.743Z,92.00
2018-03-25T23:56:05.007Z,92.10
2018-03-25T23:58:33.283Z,92.20
